createdAt,value
2023-04-09T00:02:51.467Z,100.00
2023-04-09T00:07:56.956Z,100.00
2023-04-09T00:13:03.175Z,100.00
2023-04-09T00:18:11.035Z,100.00
2023-04-09T00:23:17.580Z,100.00
2023-04-09T00:28:22.784Z,100.00
2023-04-09T00:33:33.564Z,100.00
2023-04-09T00:38:41.297Z,100.00
2023-04-09T00:43:46.878Z,100.00
2023-04-09T00:48:56.039Z,100.00
2023-04-09T00:54:01.511Z,100.00
2023-04-09T00:59:08.917Z,100.00
2023-04-09T01:04:18.063Z,100.00
2023-04-09T01:09:31.388Z,100.00
2023-04-09T01:14:46.977Z,100.00
2023-04-09T01:20:05.258Z,100.00
2023-04-09T01:25:21.777Z,100.00
2023-04-09T01:30:31.676Z,100.00
2023-04-09T01:35:37.150Z,100.00
2023-04-09T01:40:42.748Z,100.00
2023-04-09T01:45:51.834Z,100.00
2023-04-09T01:50:57.186Z,100.00
2023-04-09T01:56:06.265Z,100.00
2023-04-09T02:01:19.726Z,100.00
2023-04-09T02:06:40.694Z,100.00
2023-04-09T02:11:49.316Z,100.00
2023-04-09T02:16:57.494Z,100.00
2023-04-09T02:22:03.410Z,100.00
2023-04-09T02:27:11.426Z,100.00
2023-04-09T02:32:19.942Z,100.00
2023-04-09T02:37:25.705Z,100.00
2023-04-09T02:42:31.415Z,100.00
2023-04-09T02:47:39.697Z,100.00
2023-04-09T02:52:45.285Z,100.00
2023-04-09T02:57:50.783Z,100.00
2023-04-09T03:02:58.789Z,100.00
2023-04-09T03:08:04.911Z,100.00
2023-04-09T03:13:10.214Z,100.00
2023-04-09T03:18:19.521Z,100.00
2023-04-09T03:23:25.925Z,100.00
2023-04-09T03:28:31.494Z,100.00
2023-04-09T03:33:41.536Z,100.00
2023-04-09T03:38:50.619Z,100.00
2023-04-09T03:44:21.017Z,100.00
2023-04-09T03:49:59.583Z,100.00
2023-04-09T03:55:09.374Z,100.00
2023-04-09T04:00:21.490Z,100.00
2023-04-09T04:05:31.732Z,100.00
2023-04-09T04:10:41.484Z,100.00
2023-04-09T04:15:49.146Z,100.00
2023-04-09T04:21:01.565Z,100.00
2023-04-09T04:26:11.160Z,100.00
2023-04-09T04:31:16.884Z,100.00
2023-04-09T04:36:27.052Z,100.00
2023-04-09T04:41:33.881Z,100.00
2023-04-09T04:46:49.689Z,100.00
2023-04-09T04:51:57.650Z,100.00
2023-04-09T04:57:03.507Z,100.00
2023-04-09T05:02:18.218Z,100.00
2023-04-09T05:07:46.846Z,97.74
2023-04-09T05:12:52.946Z,87.20
2023-04-09T05:18:13.965Z,88.63
2023-04-09T05:23:21.966Z,81.46
2023-04-09T05:28:28.245Z,82.58
2023-04-09T05:33:43.855Z,80.66
2023-04-09T05:38:58.907Z,77.27
2023-04-09T05:44:04.123Z,75.16
2023-04-09T05:49:09.501Z,68.07
2023-04-09T05:54:18.995Z,65.24
2023-04-09T05:59:24.262Z,63.66
2023-04-09T06:04:29.781Z,62.33
2023-04-09T06:09:38.300Z,61.57
2023-04-09T06:14:43.890Z,61.25
2023-04-09T06:19:49.705Z,60.84
2023-04-09T06:24:58.549Z,60.03
2023-04-09T06:30:03.734Z,58.18
2023-04-09T06:35:11.240Z,57.73
2023-04-09T06:40:22.177Z,57.41
2023-04-09T06:45:28.239Z,57.07
2023-04-09T06:50:33.742Z,55.80
2023-04-09T06:55:44.091Z,55.40
2023-04-09T07:00:49.350Z,55.88
2023-04-09T07:05:54.736Z,56.60
2023-04-09T07:11:04.520Z,57.63
2023-04-09T07:16:09.780Z,62.76
2023-04-09T07:21:15.113Z,63.15
2023-04-09T07:26:23.508Z,69.17
2023-04-09T07:31:29.059Z,70.51
2023-04-09T07:36:34.619Z,73.84
2023-04-09T07:41:44.902Z,70.75
2023-04-09T07:46:50.249Z,67.84
2023-04-09T07:51:55.620Z,69.06
2023-04-09T07:57:06.234Z,67.91
2023-04-09T08:02:15.014Z,74.26
2023-04-09T08:07:23.860Z,71.81
2023-04-09T08:12:36.212Z,66.33
2023-04-09T08:17:46.592Z,63.14
2023-04-09T08:22:54.065Z,65.21
2023-04-09T08:28:02.869Z,62.12
2023-04-09T08:33:12.381Z,60.90
2023-04-09T08:38:21.630Z,58.56
2023-04-09T08:43:56.319Z,63.60
2023-04-09T08:49:05.810Z,61.60
2023-04-09T08:54:12.862Z,61.83
2023-04-09T08:59:23.666Z,65.15
2023-04-09T09:04:47.630Z,63.37
2023-04-09T09:09:58.844Z,65.79
2023-04-09T09:15:09.880Z,63.22
2023-04-09T09:20:30.367Z,63.91
2023-04-09T09:25:44.099Z,61.83
2023-04-09T09:30:53.216Z,65.36
2023-04-09T09:35:59.627Z,65.45
2023-04-09T09:41:23.314Z,64.18
2023-04-09T09:46:38.806Z,66.65
2023-04-09T09:51:45.825Z,64.11
2023-04-09T09:57:13.629Z,65.36
2023-04-09T10:02:27.279Z,66.16
2023-04-09T10:07:33.886Z,66.76
2023-04-09T10:12:42.274Z,69.83
2023-04-09T10:17:57.068Z,71.16
2023-04-09T10:23:09.185Z,73.82
2023-04-09T10:28:20.633Z,69.84
2023-04-09T10:33:31.787Z,69.63
2023-04-09T10:38:41.807Z,68.45
2023-04-09T10:43:53.112Z,71.42
2023-04-09T10:49:16.042Z,69.37
2023-04-09T10:54:56.126Z,72.19
2023-04-09T11:00:06.160Z,70.17
2023-04-09T11:05:29.584Z,70.04
2023-04-09T11:10:38.683Z,71.20
2023-04-09T11:15:45.153Z,69.75
2023-04-09T11:20:54.008Z,70.71
2023-04-09T11:26:00.184Z,69.33
2023-04-09T11:31:09.381Z,70.33
2023-04-09T11:36:18.533Z,69.62
2023-04-09T11:41:39.384Z,66.53
2023-04-09T11:46:51.605Z,66.35
2023-04-09T11:52:03.467Z,65.10
2023-04-09T11:57:09.476Z,63.71
2023-04-09T12:02:19.075Z,64.71
2023-04-09T12:07:36.412Z,63.31
2023-04-09T12:12:47.073Z,65.26
2023-04-09T12:17:57.652Z,64.76
2023-04-09T12:23:08.538Z,63.31
2023-04-09T12:28:18.789Z,63.49
2023-04-09T12:33:26.202Z,62.21
2023-04-09T12:38:44.715Z,61.60
2023-04-09T12:43:53.612Z,64.31
2023-04-09T12:49:06.477Z,63.31
2023-04-09T12:59:40.714Z,63.25
2023-04-09T13:04:53.519Z,59.97
2023-04-09T13:10:11.882Z,59.45
2023-04-09T13:15:23.354Z,59.12
2023-04-09T13:20:31.243Z,60.05
2023-04-09T13:25:46.601Z,60.76
2023-04-09T13:31:00.441Z,58.13
2023-04-09T13:36:08.930Z,59.61
2023-04-09T13:41:19.716Z,58.82
2023-04-09T13:46:24.896Z,61.03
2023-04-09T13:51:34.781Z,61.73
2023-04-09T13:56:42.609Z,62.94
2023-04-09T14:01:47.769Z,61.80
2023-04-09T14:06:55.192Z,60.40
2023-04-09T14:12:03.146Z,62.94
2023-04-09T14:17:08.332Z,62.33
2023-04-09T14:22:13.568Z,61.41
2023-04-09T14:27:23.981Z,60.09
2023-04-09T14:32:29.292Z,59.58
2023-04-09T14:37:34.537Z,59.32
2023-04-09T14:42:42.402Z,61.07
2023-04-09T14:47:47.532Z,60.92
2023-04-09T14:52:52.738Z,59.57
2023-04-09T14:58:01.842Z,59.79
2023-04-09T15:03:07.660Z,59.62
2023-04-09T15:08:13.395Z,58.28
2023-04-09T15:13:21.375Z,59.74
2023-04-09T15:18:26.529Z,61.18
2023-04-09T15:23:31.684Z,61.53
2023-04-09T15:28:39.372Z,62.51
2023-04-09T15:33:47.272Z,61.80
2023-04-09T15:38:52.695Z,62.36
2023-04-09T15:44:00.728Z,62.09
2023-04-09T15:49:07.632Z,61.78
2023-04-09T15:54:12.853Z,62.11
2023-04-09T15:59:21.880Z,60.84
2023-04-09T16:04:28.956Z,62.07
2023-04-09T16:09:34.195Z,62.48
2023-04-09T16:14:42.659Z,63.34
2023-04-09T16:19:48.125Z,64.06
2023-04-09T16:24:53.223Z,64.92
2023-04-09T16:30:01.352Z,64.77
2023-04-09T16:35:06.796Z,65.50
2023-04-09T16:40:15.033Z,65.40
2023-04-09T16:45:22.757Z,65.65
2023-04-09T16:50:27.879Z,65.79
2023-04-09T16:55:33.016Z,66.09
2023-04-09T17:00:41.114Z,65.91
2023-04-09T17:05:51.405Z,67.53
2023-04-09T17:11:02.545Z,68.06
2023-04-09T17:16:12.012Z,67.05
2023-04-09T17:21:17.302Z,66.64
2023-04-09T17:26:22.686Z,65.24
2023-04-09T17:31:33.496Z,67.29
2023-04-09T17:36:38.613Z,67.33
2023-04-09T17:41:46.131Z,68.40
2023-04-09T17:46:54.443Z,68.48
2023-04-09T17:51:59.640Z,68.82
2023-04-09T17:57:07.508Z,69.05
2023-04-09T18:02:15.372Z,68.74
2023-04-09T18:07:21.519Z,68.88
2023-04-09T18:12:26.704Z,70.00
2023-04-09T18:17:34.612Z,70.76
2023-04-09T18:22:39.840Z,72.27
2023-04-09T18:27:45.012Z,73.83
2023-04-09T18:32:52.872Z,74.46
2023-04-09T18:37:58.120Z,75.26
2023-04-09T18:43:03.353Z,75.12
2023-04-09T18:48:11.670Z,75.00
2023-04-09T18:53:17.207Z,74.83
2023-04-09T18:58:23.178Z,75.36
2023-04-09T19:03:31.358Z,76.82
2023-04-09T19:08:38.418Z,74.76
2023-04-09T19:13:45.397Z,75.88
2023-04-09T19:18:54.043Z,78.94
2023-04-09T19:24:00.357Z,77.90
2023-04-09T19:29:05.780Z,79.78
2023-04-09T19:34:13.755Z,80.57
2023-04-09T19:39:19.128Z,82.92
2023-04-09T19:44:24.351Z,85.88
2023-04-09T19:49:32.350Z,89.48
2023-04-09T19:54:38.267Z,89.00
2023-04-09T19:59:44.082Z,86.98
2023-04-09T20:04:52.922Z,88.45
2023-04-09T20:09:58.496Z,89.13
2023-04-09T20:15:06.941Z,88.36
2023-04-09T20:20:18.154Z,89.79
2023-04-09T20:25:24.043Z,92.55
2023-04-09T20:30:29.403Z,92.34
2023-04-09T20:35:42.356Z,93.34
2023-04-09T20:40:48.121Z,95.28
2023-04-09T20:45:53.205Z,95.68
2023-04-09T20:51:01.681Z,95.38
2023-04-09T20:56:07.534Z,96.88
2023-04-09T21:01:13.469Z,97.76
2023-04-09T21:06:22.250Z,97.34
2023-04-09T21:11:27.347Z,95.93
2023-04-09T21:16:40.911Z,95.05
2023-04-09T21:21:48.928Z,94.08
2023-04-09T21:26:54.153Z,94.39
2023-04-09T21:31:59.248Z,95.59
2023-04-09T21:37:08.700Z,96.53
2023-04-09T21:42:13.850Z,97.68
2023-04-09T21:47:19.090Z,95.64
2023-04-09T21:52:28.341Z,96.81
2023-04-09T21:57:33.604Z,97.40
2023-04-09T22:02:38.918Z,97.19
2023-04-09T22:07:47.986Z,97.52
2023-04-09T22:12:53.529Z,97.72
2023-04-09T22:17:59.206Z,95.99
2023-04-09T22:23:08.970Z,98.65
2023-04-09T22:28:14.343Z,98.01
2023-04-09T22:33:19.605Z,100.00
2023-04-09T22:38:27.588Z,98.45
2023-04-09T22:43:32.740Z,100.00
2023-04-09T22:48:55.586Z,100.00
2023-04-09T22:54:03.533Z,100.00
2023-04-09T22:59:09.167Z,100.00
2023-04-09T23:04:14.515Z,100.00
2023-04-09T23:09:22.722Z,100.00
2023-04-09T23:14:28.040Z,100.00
2023-04-09T23:19:33.114Z,100.00
2023-04-09T23:24:41.134Z,100.00
2023-04-09T23:29:47.018Z,100.00
2023-04-09T23:34:52.280Z,100.00
2023-04-09T23:40:03.440Z,100.00
2023-04-09T23:45:11.925Z,100.00
2023-04-09T23:50:17.950Z,100.00
2023-04-09T23:55:25.993Z,100.00
